Terminal Aerodrome Forecast
Issued by NWS

Home | Current Version | Previous Version | Text Only | Print | Product List | Glossary On
Versions: 1 2 3 4 5 6 7 8 9 10 11 12
000
FTUS45 KTWC 231740
TAFOLS
TAF
KOLS 231740Z 2318/2418 17011G18KT P6SM SKC
     FM231900 22014G22KT P6SM SKC
     FM240200 19008KT P6SM SKC
     FM240600 VRB04KT P6SM SKC=

USA.gov is the U.S. government's official web portal to all federal, state and local government web resources and services.